Forside
METAR-TAF:

METAR-TAF

Lufthavne :

Ramsar, Iran

Breddekreds: 36-54N, længdekreds: 050-40E, højde: -23 m

Aktuelle vejr

Denne rapport blev lavet for 1 time og 11 minutter siden, kl. 01:00 UTC
Vind stille
Temperatur 13°C
Fugtighed 88%
Tryk 1020 hPa
Sigt 10 km eller mere
Spredte skyer i en højde af 2700 ft

METAR: OINR 170100Z 00000KT 9999 SCT027 13/11 Q1020

Tid: 05:41 (02:11 UTC)


TAF: fraværende

Vejrobservationer og prognoser fra mere end 4000 lufthavne (METAR og TAF).

De gule og røde prikker repræsenterer de meteorologiske stationer.

Flyt musen over at se navnet på stationen.

Så klik over at se vejr observationer og prognoser.

At skifte det kort: Klik på de grønne knapper med et sort kors for at zoome ind; på den grønne knap med en bindestreg for at zoome ud; eller på de grønne pile for tilstødende kort.


METAR-TAF: